Indian Head, PA (15446)

11:50 PM EST on December 24, 2014 (GMT -0500)
Seven Springs Resort | Change Station
CLOSE
Current Station
Personal Weather Station
Location: Champion, PA
Elevation: 2540 ft
Nearby Weather Stations
Active Advisory: Wind Advisory Active Notice: Public Information Statement

Elev 2540 ft 40.02 °N, 79.30 °W | Updated 3 seconds ago

Rain
Rain
40.4 °F
Feels Like 35 °F
N
9.0
Wind Variable Wind from West
Gusts 13.0 mph

Today
High -- | Low -- °F
--% Chance of Precip.
Yesterday
High -- | Low -- °F
Precip. -- in
7:37 AM 4:57 PM
Waxing Crescent, 13% visible
Pressure 29.63 in
Visibility 5.0 miles
Clouds Scattered Clouds 1900 ft
Mostly Cloudy 2300 ft
Overcast 4600 ft
Windchill 35 °F
Dew Point 40 °F
Humidity 98%
Rainfall 0.36 in
Snow Depth Not available.
UV 0 out of 12
Pollen .10 out of 12
Air Quality Not available.
Flu Activity Not available.
METAR KLBE 250435Z AUTO 25016G22KT 5SM -RA SCT019 BKN023 OVC046 07/06 A2963 RMK AO2 P0005

More Conditions Fewer Conditions

Pressure 29.63 in
Visibility 5.0 miles
Clouds Scattered Clouds 1900 ft
Mostly Cloudy 2300 ft
Overcast 4600 ft
Windchill 35 °F
Dew Point 40 °F
Humidity 98%
Rainfall 0.36 in
Snow Depth Not available.
UV 0 out of 12
Pollen .10 out of 12
Air Quality Not available.
Flu Activity Not available.
METAR KLBE 250435Z AUTO 25016G22KT 5SM -RA SCT019 BKN023 OVC046 07/06 A2963 RMK AO2 P0005

More Conditions Fewer Conditions

10-Day Weather Forecast

Almanac

Astronomy

Dec. 24, 2014 Rise Set
Actual Time
Civil Twilight
Nautical Twilight
Astronomical Twilight
Moon
Length of Visible Light
Length of Day
Tomorrow will be .
, % of the Moon is Illuminated

Today's Extremes

State Highs State Lows

Community

WunderPhotos

Upload Photos

1,780,238 photos uploaded!

WunderBlogs® & News

Nearby

Air Quality

  Air Quality AQ Index Pollutant
Not available.

Snow Depth

Station Depth Elevation

Earthquake Activity

City Distance Mag. Time & Date
Minimum magnitude displayed is 2.5.

Coastal Water Temperatures

Place Temperature

Nearby Weather Stations